createdAt,value
2023-01-02T00:01:31.805Z,100533.81
2023-01-02T00:04:03.944Z,100539.27
2023-01-02T00:06:37.289Z,100541.09
2023-01-02T00:09:10.507Z,100541.35
2023-01-02T00:11:43.051Z,100545.92
2023-01-02T00:14:15.279Z,100546.23
2023-01-02T00:16:47.857Z,100544.37
2023-01-02T00:19:20.013Z,100546.39
2023-01-02T00:21:52.181Z,100551.45
2023-01-02T00:24:24.644Z,100544.45
2023-01-02T00:26:56.736Z,100544.40
2023-01-02T00:29:28.956Z,100544.38
2023-01-02T00:32:01.327Z,100545.63
2023-01-02T00:34:33.496Z,100543.64
2023-01-02T00:37:05.644Z,100547.27
2023-01-02T00:39:37.858Z,100546.77
2023-01-02T00:42:09.953Z,100550.84
2023-01-02T00:44:42.096Z,100550.23
2023-01-02T00:47:14.601Z,100547.89
2023-01-02T00:49:46.687Z,100548.80
2023-01-02T00:52:18.853Z,100552.30
2023-01-02T00:54:51.046Z,100543.37
2023-01-02T00:57:23.324Z,100536.85
2023-01-02T00:59:55.444Z,100533.64
2023-01-02T01:02:27.763Z,100534.07
2023-01-02T01:05:00.028Z,100531.55
2023-01-02T01:07:33.012Z,100529.90
2023-01-02T01:10:05.449Z,100526.83
2023-01-02T01:12:37.658Z,100525.92
2023-01-02T01:15:11.616Z,100523.89
2023-01-02T01:17:43.897Z,100527.59
2023-01-02T01:20:16.293Z,100521.63
2023-01-02T01:22:48.377Z,100520.52
2023-01-02T01:25:20.801Z,100520.61
2023-01-02T01:27:55.481Z,100519.36
2023-01-02T01:30:28.132Z,100526.73
2023-01-02T01:33:00.767Z,100530.58
2023-01-02T01:35:34.087Z,100531.55
2023-01-02T01:38:06.378Z,100531.75
2023-01-02T01:40:42.423Z,100535.27
2023-01-02T01:43:17.522Z,100528.31
2023-01-02T01:45:49.761Z,100534.17
2023-01-02T01:48:22.221Z,100532.65
2023-01-02T01:50:54.855Z,100531.80
2023-01-02T01:53:27.175Z,100531.81
2023-01-02T01:56:03.046Z,100535.79
2023-01-02T01:58:39.633Z,100536.86
2023-01-02T02:01:12.862Z,100540.98
2023-01-02T02:03:48.901Z,100546.25
2023-01-02T02:06:22.096Z,100550.18
2023-01-02T02:09:00.663Z,100549.46
2023-01-02T02:11:33.239Z,100553.38
2023-01-02T02:14:05.383Z,100550.55
2023-01-02T02:16:44.540Z,100554.89
2023-01-02T02:19:57.000Z,100555.56
2023-01-02T02:22:59.504Z,100560.18
2023-01-02T02:25:49.655Z,100559.27
2023-01-02T02:28:38.940Z,100560.43
2023-01-02T02:31:21.564Z,100562.48
2023-01-02T02:34:00.252Z,100563.72
2023-01-02T02:36:37.812Z,100566.06
2023-01-02T02:39:19.972Z,100562.33
2023-01-02T02:42:02.329Z,100562.23
2023-01-02T02:44:41.858Z,100562.33
2023-01-02T02:47:23.557Z,100559.30
2023-01-02T02:50:04.664Z,100557.44
2023-01-02T02:52:42.336Z,100555.04
2023-01-02T02:55:18.036Z,100552.89
2023-01-02T02:57:51.971Z,100553.13
2023-01-02T03:00:25.741Z,100554.07
2023-01-02T03:02:57.930Z,100554.71
2023-01-02T03:05:35.043Z,100554.23
2023-01-02T03:08:12.657Z,100557.50
2023-01-02T03:10:51.503Z,100558.00
2023-01-02T03:13:41.251Z,100557.73
2023-01-02T03:16:21.594Z,100551.80
2023-01-02T03:18:59.879Z,100549.08
2023-01-02T03:21:36.307Z,100538.52
2023-01-02T03:24:12.287Z,100537.65
2023-01-02T03:26:49.902Z,100537.06
2023-01-02T03:29:29.750Z,100536.47
2023-01-02T03:32:06.143Z,100528.73
2023-01-02T03:34:41.512Z,100525.23
2023-01-02T03:37:20.491Z,100519.03
2023-01-02T03:39:55.831Z,100515.22
2023-01-02T03:42:31.693Z,100511.92
2023-01-02T03:45:09.309Z,100509.36
2023-01-02T03:47:50.769Z,100507.13
2023-01-02T03:50:26.625Z,100506.42
2023-01-02T03:52:58.973Z,100507.44
2023-01-02T03:55:34.820Z,100507.84
2023-01-02T03:58:17.029Z,100509.45
2023-01-02T04:01:08.483Z,100499.89
2023-01-02T04:03:47.938Z,100474.52
2023-01-02T04:06:27.045Z,100460.62
2023-01-02T04:09:06.931Z,100456.71
2023-01-02T04:11:44.153Z,100456.25
2023-01-02T04:14:19.273Z,100453.10
2023-01-02T04:16:53.740Z,100448.42
2023-01-02T04:19:29.772Z,100442.02
2023-01-02T04:22:08.519Z,100448.69
2023-01-02T04:24:45.686Z,100448.24
2023-01-02T04:27:23.276Z,100442.59
2023-01-02T04:29:56.029Z,100452.09
2023-01-02T04:32:34.120Z,100448.70
2023-01-02T04:35:11.839Z,100443.14
2023-01-02T04:37:45.243Z,100433.98
2023-01-02T04:40:20.599Z,100431.46
2023-01-02T04:42:52.956Z,100427.80
2023-01-02T04:45:25.736Z,100428.79
2023-01-02T04:47:57.755Z,100436.93
2023-01-02T04:50:29.763Z,100439.57
2023-01-02T04:53:02.138Z,100442.02
2023-01-02T04:55:34.198Z,100441.08
2023-01-02T04:58:06.497Z,100434.83
2023-01-02T05:00:39.230Z,100432.20
2023-01-02T05:03:11.530Z,100427.61
2023-01-02T05:05:43.770Z,100417.17
2023-01-02T05:08:16.688Z,100422.80
2023-01-02T05:10:48.952Z,100421.64
2023-01-02T05:13:21.121Z,100414.98
2023-01-02T05:15:59.134Z,100406.48
2023-01-02T05:18:32.395Z,100409.55
2023-01-02T05:21:07.183Z,100411.20
2023-01-02T05:23:51.656Z,100415.80
2023-01-02T05:26:23.793Z,100417.12
2023-01-02T05:28:56.189Z,100407.98
2023-01-02T05:31:28.983Z,100399.92
2023-01-02T05:34:02.225Z,100395.17
2023-01-02T05:36:34.344Z,100389.59
2023-01-02T05:39:12.236Z,100391.71
2023-01-02T05:41:44.683Z,100388.48
2023-01-02T05:44:16.857Z,100383.42
2023-01-02T05:46:49.613Z,100383.88
2023-01-02T05:49:21.917Z,100375.37
2023-01-02T05:51:54.056Z,100371.84
2023-01-02T05:54:26.229Z,100367.91
2023-01-02T05:56:58.904Z,100360.70
2023-01-02T05:59:34.519Z,100358.73
2023-01-02T06:02:08.439Z,100352.13
2023-01-02T06:04:40.854Z,100355.02
2023-01-02T06:07:12.996Z,100355.20
2023-01-02T06:09:45.100Z,100359.50
2023-01-02T06:12:17.239Z,100348.05
2023-01-02T06:14:49.280Z,100341.55
2023-01-02T06:17:21.602Z,100340.21
2023-01-02T06:19:54.222Z,100332.98
2023-01-02T06:22:26.503Z,100326.32
2023-01-02T06:24:58.667Z,100318.38
2023-01-02T06:27:32.761Z,100315.52
2023-01-02T06:30:05.210Z,100311.95
2023-01-02T06:32:37.429Z,100310.84
2023-01-02T06:35:12.181Z,100304.71
2023-01-02T06:37:46.705Z,100301.04
2023-01-02T06:40:19.281Z,100304.45
2023-01-02T06:42:54.741Z,100297.14
2023-01-02T06:45:29.329Z,100302.16
2023-01-02T06:48:02.293Z,100300.40
2023-01-02T06:50:35.288Z,100297.01
2023-01-02T06:53:07.496Z,100295.46
2023-01-02T06:55:40.370Z,100294.50
2023-01-02T06:58:17.561Z,100295.77
2023-01-02T07:00:51.851Z,100298.42
2023-01-02T07:03:24.062Z,100292.39
2023-01-02T07:05:56.274Z,100295.99
2023-01-02T07:08:28.426Z,100293.44
2023-01-02T07:11:09.346Z,100289.20
2023-01-02T07:13:42.539Z,100286.02
2023-01-02T07:16:16.606Z,100283.63
2023-01-02T07:18:49.230Z,100287.46
2023-01-02T07:21:21.715Z,100291.56
2023-01-02T07:23:53.875Z,100286.09
2023-01-02T07:26:26.010Z,100275.91
2023-01-02T07:28:58.156Z,100279.54
2023-01-02T07:31:30.507Z,100278.99
2023-01-02T07:34:02.770Z,100280.73
2023-01-02T07:36:34.868Z,100282.59
2023-01-02T07:39:07.032Z,100284.17
2023-01-02T07:41:39.100Z,100280.20
2023-01-02T07:44:18.573Z,100278.42
2023-01-02T07:46:50.653Z,100279.36
2023-01-02T07:49:23.362Z,100271.30
2023-01-02T07:51:55.479Z,100268.91
2023-01-02T07:54:27.540Z,100268.79
2023-01-02T07:56:59.709Z,100269.60
2023-01-02T07:59:31.898Z,100267.62
2023-01-02T08:02:04.118Z,100266.80
2023-01-02T08:04:37.311Z,100257.33
2023-01-02T08:07:10.698Z,100249.70
2023-01-02T08:09:42.888Z,100241.42
2023-01-02T08:12:14.993Z,100244.84
2023-01-02T08:14:47.114Z,100238.59
2023-01-02T08:17:19.261Z,100237.79
2023-01-02T08:19:51.323Z,100235.20
2023-01-02T08:22:23.456Z,100243.74
2023-01-02T08:24:55.580Z,100241.20
2023-01-02T08:27:27.689Z,100244.34
2023-01-02T08:29:59.859Z,100251.70
2023-01-02T08:32:31.965Z,100248.02
2023-01-02T08:35:04.136Z,100250.42
2023-01-02T08:37:36.488Z,100246.11
2023-01-02T08:40:12.092Z,100249.58
2023-01-02T08:42:45.523Z,100255.69
2023-01-02T08:45:17.970Z,100250.86
2023-01-02T08:47:50.137Z,100245.34
2023-01-02T08:50:22.814Z,100243.75
2023-01-02T08:52:54.937Z,100243.80
2023-01-02T08:55:27.055Z,100241.81
2023-01-02T08:57:59.171Z,100244.05
2023-01-02T09:00:32.008Z,100241.48
2023-01-02T09:03:04.234Z,100240.14
2023-01-02T09:05:36.647Z,100238.65
2023-01-02T09:08:09.037Z,100237.71
2023-01-02T09:10:41.139Z,100235.48
2023-01-02T09:13:13.305Z,100235.89
2023-01-02T09:15:48.401Z,100235.15
2023-01-02T09:18:25.687Z,100230.36
2023-01-02T09:21:01.382Z,100230.48
2023-01-02T09:23:34.298Z,100228.22
2023-01-02T09:26:08.994Z,100227.17
2023-01-02T09:28:41.602Z,100224.13
2023-01-02T09:31:15.940Z,100230.67
2023-01-02T09:33:48.909Z,100227.42
2023-01-02T09:36:24.299Z,100219.94
2023-01-02T09:38:57.802Z,100221.29
2023-01-02T09:41:35.339Z,100221.54
2023-01-02T09:44:16.092Z,100216.55
2023-01-02T09:46:53.790Z,100220.20
2023-01-02T09:49:29.262Z,100217.61
2023-01-02T09:52:01.527Z,100219.16
2023-01-02T09:54:34.946Z,100215.27
2023-01-02T09:57:24.478Z,100214.48
2023-01-02T10:00:03.400Z,100214.80
2023-01-02T10:02:52.394Z,100203.59
2023-01-02T10:05:48.105Z,100197.30
2023-01-02T10:08:29.688Z,100199.05
2023-01-02T10:11:15.983Z,100201.20
2023-01-02T10:16:50.007Z,100198.79
2023-01-02T10:19:28.490Z,100195.22
2023-01-02T10:22:02.914Z,100190.17
2023-01-02T10:24:46.527Z,100182.98
2023-01-02T10:27:23.096Z,100185.52
2023-01-02T10:30:06.569Z,100176.81
2023-01-02T10:32:44.332Z,100176.92
2023-01-02T10:35:30.530Z,100171.70
2023-01-02T10:38:03.646Z,100176.14
2023-01-02T10:40:36.140Z,100175.76
2023-01-02T10:43:08.236Z,100169.27
2023-01-02T10:45:40.753Z,100173.45
2023-01-02T10:48:14.087Z,100167.13
2023-01-02T10:50:51.341Z,100162.48
2023-01-02T10:53:32.040Z,100154.17
2023-01-02T10:56:07.432Z,100151.34
2023-01-02T10:58:48.840Z,100154.77
2023-01-02T11:01:23.678Z,100149.60
2023-01-02T11:04:13.955Z,100146.27
2023-01-02T11:06:59.278Z,100142.33
2023-01-02T11:09:33.580Z,100149.37
2023-01-02T11:12:12.311Z,100156.04
2023-01-02T11:14:44.469Z,100164.61
2023-01-02T11:17:20.112Z,100169.17
2023-01-02T11:19:54.340Z,100166.67
2023-01-02T11:22:36.498Z,100172.64
2023-01-02T11:25:22.440Z,100168.94
2023-01-02T11:27:57.635Z,100164.83
2023-01-02T11:30:38.668Z,100154.11
2023-01-02T11:33:22.060Z,100142.52
2023-01-02T11:35:56.837Z,100136.14
2023-01-02T11:38:41.965Z,100133.52
2023-01-02T11:41:47.399Z,100125.84
2023-01-02T11:44:25.514Z,100123.49
2023-01-02T11:46:59.300Z,100129.41
2023-01-02T11:49:39.299Z,100125.06
2023-01-02T11:52:17.548Z,100127.12
2023-01-02T11:54:56.384Z,100126.09
2023-01-02T11:57:37.228Z,100125.04
2023-01-02T12:00:15.921Z,100131.25
2023-01-02T12:02:52.181Z,100124.44
2023-01-02T12:05:33.960Z,100111.26
2023-01-02T12:08:16.455Z,100103.45
2023-01-02T12:11:02.976Z,100105.75
2023-01-02T12:13:52.607Z,100098.50
2023-01-02T12:16:34.491Z,100093.55
2023-01-02T12:19:44.430Z,100098.15
2023-01-02T12:22:33.551Z,100097.11
2023-01-02T12:25:38.455Z,100096.77
2023-01-02T12:28:26.268Z,100101.24
2023-01-02T12:31:38.919Z,100096.11
2023-01-02T12:34:20.244Z,100095.41
2023-01-02T12:37:08.151Z,100090.60
2023-01-02T12:40:12.876Z,100084.06
2023-01-02T12:45:53.723Z,100069.55
2023-01-02T12:48:46.529Z,100069.42
2023-01-02T12:51:24.482Z,100065.78
2023-01-02T12:54:18.985Z,100067.79
2023-01-02T12:57:03.964Z,100063.00
2023-01-02T13:00:02.284Z,100066.58
2023-01-02T13:02:52.103Z,100068.85
2023-01-02T13:05:29.782Z,100061.09
2023-01-02T13:08:08.843Z,100063.65
2023-01-02T13:10:41.567Z,100057.18
2023-01-02T13:13:16.498Z,100054.71
2023-01-02T13:15:51.662Z,100060.27
2023-01-02T13:18:32.986Z,100066.88
2023-01-02T13:21:11.239Z,100072.25
2023-01-02T13:23:47.007Z,100085.23
2023-01-02T13:26:23.205Z,100093.30
2023-01-02T13:29:06.914Z,100099.34
2023-01-02T13:31:47.048Z,100099.84
2023-01-02T13:34:25.861Z,100090.65
2023-01-02T13:37:09.026Z,100084.73
2023-01-02T13:39:50.060Z,100078.95
2023-01-02T13:42:46.994Z,100069.11
2023-01-02T13:45:22.717Z,100064.41
2023-01-02T13:48:00.131Z,100049.87
2023-01-02T13:50:34.700Z,100046.82
2023-01-02T13:53:21.807Z,100040.64
2023-01-02T13:56:10.364Z,100049.94
2023-01-02T13:58:45.529Z,100057.29
2023-01-02T14:01:41.040Z,100048.60
2023-01-02T14:04:43.822Z,100070.77
2023-01-02T14:07:45.923Z,100071.83
2023-01-02T14:10:40.614Z,100070.48
2023-01-02T14:13:22.685Z,100061.52
2023-01-02T14:16:20.800Z,100053.61
2023-01-02T14:19:22.110Z,100046.96
2023-01-02T14:22:05.397Z,100051.35
2023-01-02T14:24:41.354Z,100041.29
2023-01-02T14:27:25.942Z,100029.89
2023-01-02T14:30:01.275Z,100044.10
2023-01-02T14:32:40.749Z,100045.15
2023-01-02T14:35:31.059Z,100042.95
2023-01-02T14:38:18.028Z,100047.81
2023-01-02T14:40:51.000Z,100038.20
2023-01-02T14:43:35.977Z,100043.88
2023-01-02T14:46:17.937Z,100048.34
2023-01-02T14:48:56.111Z,100060.20
2023-01-02T14:51:36.930Z,100049.10
2023-01-02T14:54:18.239Z,100045.45
2023-01-02T14:56:53.275Z,100051.61
2023-01-02T14:59:31.026Z,100058.27
2023-01-02T15:02:07.959Z,100066.13
2023-01-02T15:04:45.984Z,100061.51
2023-01-02T15:07:27.891Z,100059.15
2023-01-02T15:10:05.223Z,100061.14
2023-01-02T15:13:03.719Z,100061.83
2023-01-02T15:15:42.015Z,100063.13
2023-01-02T15:18:22.968Z,100068.54
2023-01-02T15:20:56.876Z,100068.05
2023-01-02T15:23:30.913Z,100069.21
2023-01-02T15:26:32.939Z,100063.09
2023-01-02T15:29:00.236Z,100060.48
2023-01-02T15:31:32.601Z,100064.73
2023-01-02T15:34:04.774Z,100055.13
2023-01-02T15:36:40.460Z,100051.05
2023-01-02T15:39:19.047Z,100048.48
2023-01-02T15:41:54.417Z,100048.51
2023-01-02T15:44:46.166Z,100048.73
2023-01-02T15:47:25.516Z,100055.05
2023-01-02T15:50:00.713Z,100056.30
2023-01-02T15:52:33.786Z,100057.27
2023-01-02T15:55:10.155Z,100057.95
2023-01-02T15:57:49.847Z,100061.02
2023-01-02T16:00:40.812Z,100063.36
2023-01-02T16:04:01.771Z,100075.72
2023-01-02T16:06:29.966Z,100078.39
2023-01-02T16:09:05.593Z,100080.50
2023-01-02T16:11:47.568Z,100082.75
2023-01-02T16:14:22.881Z,100079.83
2023-01-02T16:17:02.065Z,100083.54
2023-01-02T16:19:40.511Z,100089.16
2023-01-02T16:22:21.091Z,100089.52
2023-01-02T16:25:02.409Z,100089.52
2023-01-02T16:27:41.331Z,100082.89
2023-01-02T16:30:32.772Z,100074.51
2023-01-02T16:33:20.596Z,100068.63
2023-01-02T16:36:01.013Z,100067.97
2023-01-02T16:38:46.062Z,100071.64
2023-01-02T16:42:12.334Z,100068.16
2023-01-02T16:44:54.060Z,100063.14
2023-01-02T16:47:33.716Z,100065.73
2023-01-02T16:50:07.482Z,100063.35
2023-01-02T16:52:39.844Z,100061.46
2023-01-02T16:55:17.694Z,100053.52
2023-01-02T16:57:50.578Z,100056.61
2023-01-02T17:00:23.787Z,100060.44
2023-01-02T17:02:56.106Z,100060.25
2023-01-02T17:05:33.478Z,100059.98
2023-01-02T17:08:06.113Z,100062.27
2023-01-02T17:10:38.332Z,100064.85
2023-01-02T17:13:10.834Z,100059.15
2023-01-02T17:15:42.951Z,100061.67
2023-01-02T17:18:15.100Z,100065.60
2023-01-02T17:20:47.285Z,100063.63
2023-01-02T17:23:20.176Z,100063.71
2023-01-02T17:25:52.492Z,100061.80
2023-01-02T17:28:24.615Z,100061.79
2023-01-02T17:30:56.708Z,100057.12
2023-01-02T17:33:29.046Z,100057.52
2023-01-02T17:36:01.195Z,100056.23
2023-01-02T17:38:33.586Z,100046.44
2023-01-02T17:55:34.218Z,100025.76
2023-01-02T17:58:06.432Z,100026.88
2023-01-02T18:00:38.625Z,100027.03
2023-01-02T18:03:10.927Z,100024.30
2023-01-02T18:05:43.193Z,100027.83
2023-01-02T18:08:16.429Z,100031.15
2023-01-02T18:10:48.683Z,100039.27
2023-01-02T18:13:20.900Z,100039.48
2023-01-02T18:15:53.078Z,100042.05
2023-01-02T18:18:27.614Z,100044.45
2023-01-02T18:21:00.272Z,100045.98
2023-01-02T18:23:32.466Z,100048.20
2023-01-02T18:26:06.631Z,100044.30
2023-01-02T18:28:41.503Z,100041.48
2023-01-02T18:31:19.251Z,100043.20
2023-01-02T18:33:52.639Z,100042.95
2023-01-02T18:36:26.477Z,100049.09
2023-01-02T18:39:03.722Z,100048.21
2023-01-02T18:41:39.943Z,100046.55
2023-01-02T18:44:20.510Z,100044.67
2023-01-02T18:47:03.175Z,100044.75
2023-01-02T18:49:42.308Z,100046.97
2023-01-02T18:52:27.140Z,100047.79
2023-01-02T18:55:17.227Z,100051.94
2023-01-02T18:57:51.884Z,100054.34
2023-01-02T19:00:28.385Z,100056.98
2023-01-02T19:03:03.500Z,100064.86
2023-01-02T19:05:37.736Z,100063.23
2023-01-02T19:08:19.270Z,100064.66
2023-01-02T19:10:54.326Z,100060.73
2023-01-02T19:13:29.341Z,100064.27
2023-01-02T19:16:05.866Z,100061.02
2023-01-02T19:18:42.922Z,100064.69
2023-01-02T19:21:28.493Z,100065.79
2023-01-02T19:24:03.156Z,100071.89
2023-01-02T19:26:37.530Z,100068.87
2023-01-02T19:29:19.235Z,100063.65
2023-01-02T19:31:57.223Z,100071.42
2023-01-02T19:34:44.087Z,100075.34
2023-01-02T19:37:43.207Z,100068.95
2023-01-02T19:40:19.762Z,100072.98
2023-01-02T19:42:54.444Z,100065.71
2023-01-02T19:45:28.048Z,100063.25
2023-01-02T19:48:00.351Z,100063.69
2023-01-02T19:50:32.553Z,100068.23
2023-01-02T19:53:04.844Z,100067.72
2023-01-02T19:55:37.806Z,100064.67
2023-01-02T19:58:10.075Z,100070.59
2023-01-02T20:00:42.402Z,100069.99
2023-01-02T20:03:15.107Z,100076.61
2023-01-02T20:05:49.935Z,100092.59
2023-01-02T20:08:22.154Z,100091.95
2023-01-02T20:10:54.357Z,100091.73
2023-01-02T20:13:26.849Z,100095.76
2023-01-02T20:15:59.199Z,100090.69
2023-01-02T20:18:31.565Z,100084.30
2023-01-02T20:21:03.843Z,100087.77
2023-01-02T20:23:36.008Z,100087.73
2023-01-02T20:26:09.384Z,100096.69
2023-01-02T20:28:41.646Z,100090.27
2023-01-02T20:31:13.876Z,100090.43
2023-01-02T20:33:46.149Z,100085.14
2023-01-02T20:36:18.268Z,100088.73
2023-01-02T20:38:50.444Z,100087.60
2023-01-02T20:41:22.771Z,100084.40
2023-01-02T20:43:55.121Z,100084.19
2023-01-02T20:46:27.458Z,100081.16
2023-01-02T20:48:59.814Z,100083.02
2023-01-02T20:51:32.127Z,100089.95
2023-01-02T20:54:06.931Z,100091.79
2023-01-02T20:56:37.812Z,100101.34
2023-01-02T20:59:10.107Z,100104.62
2023-01-02T21:01:44.327Z,100110.73
2023-01-02T21:04:22.569Z,100108.27
2023-01-02T21:07:01.412Z,100104.52
2023-01-02T21:09:33.643Z,100100.71
2023-01-02T21:12:26.173Z,100101.96
2023-01-02T21:14:58.421Z,100103.70
2023-01-02T21:17:30.633Z,100101.23
2023-01-02T21:20:02.885Z,100100.58
2023-01-02T21:22:35.150Z,100101.62
2023-01-02T21:25:08.539Z,100099.16
2023-01-02T21:27:40.792Z,100097.81
2023-01-02T21:30:15.133Z,100095.34
2023-01-02T21:32:47.839Z,100096.60
2023-01-02T21:35:20.084Z,100094.73
2023-01-02T21:37:52.560Z,100090.52
2023-01-02T21:40:24.833Z,100093.66
2023-01-02T21:42:57.359Z,100092.43
2023-01-02T21:45:29.731Z,100093.99
2023-01-02T21:48:08.230Z,100099.13
2023-01-02T21:50:41.638Z,100100.64
2023-01-02T21:53:16.870Z,100107.10
2023-01-02T21:55:49.308Z,100114.67
2023-01-02T21:58:21.526Z,100117.30
2023-01-02T22:00:53.750Z,100118.67
2023-01-02T22:03:26.227Z,100119.88
2023-01-02T22:05:58.747Z,100120.23
2023-01-02T22:08:31.225Z,100122.50
2023-01-02T22:11:17.290Z,100122.13
2023-01-02T22:13:49.490Z,100124.10
2023-01-02T22:16:21.654Z,100129.91
2023-01-02T22:18:54.657Z,100134.80
2023-01-02T22:21:26.918Z,100139.12
2023-01-02T22:23:59.450Z,100141.42
2023-01-02T22:26:32.019Z,100141.90
2023-01-02T22:29:04.731Z,100143.06
2023-01-02T22:31:37.537Z,100145.80
2023-01-02T22:34:10.366Z,100145.95
2023-01-02T22:36:43.401Z,100147.36
2023-01-02T22:39:27.908Z,100152.73
2023-01-02T22:42:49.301Z,100155.86
2023-01-02T22:45:19.772Z,100155.89
2023-01-02T22:47:52.302Z,100160.83
2023-01-02T22:50:27.280Z,100162.44
2023-01-02T22:53:00.134Z,100170.05
2023-01-02T22:55:32.844Z,100174.81
2023-01-02T22:58:06.953Z,100175.89
2023-01-02T23:00:39.328Z,100181.80
2023-01-02T23:03:15.743Z,100180.43
2023-01-02T23:05:47.992Z,100183.22
2023-01-02T23:08:20.422Z,100191.30
2023-01-02T23:10:52.747Z,100190.63
2023-01-02T23:13:25.059Z,100194.73
2023-01-02T23:16:15.152Z,100204.87
2023-01-02T23:19:05.217Z,100204.98
2023-01-02T23:21:39.043Z,100209.27
2023-01-02T23:24:12.025Z,100216.37
2023-01-02T23:26:46.018Z,100224.19
2023-01-02T23:29:19.362Z,100225.65
2023-01-02T23:31:53.238Z,100238.59
2023-01-02T23:34:27.081Z,100242.50
2023-01-02T23:37:00.877Z,100244.09
2023-01-02T23:39:34.494Z,100255.08
2023-01-02T23:42:07.098Z,100256.52
2023-01-02T23:44:39.640Z,100257.02
2023-01-02T23:47:15.866Z,100267.20
2023-01-02T23:49:51.180Z,100266.56
2023-01-02T23:52:23.414Z,100271.05
2023-01-02T23:54:55.583Z,100269.05
2023-01-02T23:57:27.825Z,100266.72
